Terminal Aerodrome Forecast
Issued by NWS

Home | Current Version | Previous Version | Text Only | Print | Product List | Glossary On
Versions: 1 2 3 4 5 6 7 8 9 10 11 12 13 14
000
FTUS43 KDTX 051132
TAFMBS
TAF
KMBS 051132Z 0512/0612 09007KT 6SM -SHRA OVC060
     FM052000 06010KT 5SM SHRA OVC045
     FM060800 09005KT 3SM -SHRA BR OVC020=

USA.gov is the U.S. government's official web portal to all federal, state and local government web resources and services.